KDLS/DLS METAR and TAF weather

Enter ICAO airport designator
Station Type Date Time Source
KDLS METAR 2018/01/21 11:53 UTC NOAA

KDLS 211153Z AUTO 00000KT 10SM CLR M01/M01 A3007 RMK AO2 SLP185 I6000 T10061011 10028 21011 58013


Station Type Date Time Source
KDLS Decoded METAR 2018/01/21 11:53 UTC NOAA

THE DALLES MUNICIPAL AIRPORT , OR, United States (KDLS) 45-37N 121-10W 71M
Jan 21, 2018 - 06:53 AM EST / 2018.01.21 1153 UTC
Wind: Calm:0
Visibility: 10 mile(s):0
Sky conditions: clear
Temperature: 30.9 F (-0.6 C)
Dew Point: 30.0 F (-1.1 C)
Relative Humidity: 96%
Pressure (altimeter): 30.07 in. Hg (1018 hPa)
Pressure tendency: 0.04 inches (1.3 hPa) lower than three hours ago
ob: KDLS 211153Z AUTO 00000KT 10SM CLR M01/M01 A3007 RMK AO2 SLP185 I6000 T10061011 10028 21011 58013
cycle: 12

Station Type Date Time Source
KDLS TAF 2018/01/21 12:42 UTC NOAA

TAF KDLS 211140Z 2112/2212 08005KT P6SM OVC070
FM211700 VRB04KT P6SM -RA SCT025 OVC035
FM220100 VRB03KT 5SM BR SCT035 SCT050
FM220300 31008G15KT P6SM VCSH BKN030 OVC045


Example: see airport list